sensor_id;sensor_type;location;lat;lon;timestamp;P1;durP1;ratioP1;P2;durP2;ratioP2
9712;SDS011;4895;50.926;6.870;2022-12-24T00:01:08;32.60;;;4.00;;
9712;SDS011;4895;50.926;6.870;2022-12-24T00:03:34;32.63;;;4.60;;
9712;SDS011;4895;50.926;6.870;2022-12-24T00:06:04;28.37;;;6.40;;
9712;SDS011;4895;50.926;6.870;2022-12-24T00:08:30;25.80;;;4.40;;
9712;SDS011;4895;50.926;6.870;2022-12-24T00:10:55;32.17;;;4.70;;
9712;SDS011;4895;50.926;6.870;2022-12-24T00:13:21;35.27;;;4.90;;
9712;SDS011;4895;50.926;6.870;2022-12-24T00:15:46;31.07;;;4.60;;
9712;SDS011;4895;50.926;6.870;2022-12-24T00:18:12;21.83;;;5.27;;
9712;SDS011;4895;50.926;6.870;2022-12-24T00:20:37;24.40;;;4.63;;
9712;SDS011;4895;50.926;6.870;2022-12-24T00:23:03;28.33;;;5.30;;
9712;SDS011;4895;50.926;6.870;2022-12-24T00:25:28;38.17;;;4.63;;
9712;SDS011;4895;50.926;6.870;2022-12-24T00:27:53;27.50;;;3.90;;
9712;SDS011;4895;50.926;6.870;2022-12-24T00:30:19;24.47;;;4.33;;
9712;SDS011;4895;50.926;6.870;2022-12-24T00:32:44;24.43;;;5.20;;
9712;SDS011;4895;50.926;6.870;2022-12-24T00:35:09;18.73;;;4.03;;
9712;SDS011;4895;50.926;6.870;2022-12-24T00:37:34;36.47;;;4.20;;
9712;SDS011;4895;50.926;6.870;2022-12-24T00:40:00;27.53;;;4.30;;
9712;SDS011;4895;50.926;6.870;2022-12-24T00:42:25;33.73;;;4.30;;
9712;SDS011;4895;50.926;6.870;2022-12-24T00:44:50;30.10;;;4.40;;
9712;SDS011;4895;50.926;6.870;2022-12-24T00:47:15;32.03;;;4.40;;
9712;SDS011;4895;50.926;6.870;2022-12-24T00:49:41;39.13;;;4.70;;
9712;SDS011;4895;50.926;6.870;2022-12-24T00:52:06;29.03;;;4.60;;
9712;SDS011;4895;50.926;6.870;2022-12-24T00:54:31;18.73;;;4.27;;
9712;SDS011;4895;50.926;6.870;2022-12-24T00:56:56;32.53;;;4.33;;
9712;SDS011;4895;50.926;6.870;2022-12-24T00:59:22;26.63;;;5.00;;
9712;SDS011;4895;50.926;6.870;2022-12-24T01:01:47;36.80;;;4.40;;
9712;SDS011;4895;50.926;6.870;2022-12-24T01:04:12;26.57;;;3.73;;
9712;SDS011;4895;50.926;6.870;2022-12-24T01:06:56;31.83;;;4.93;;
9712;SDS011;4895;50.926;6.870;2022-12-24T01:09:21;33.63;;;4.97;;
9712;SDS011;4895;50.926;6.870;2022-12-24T01:11:47;25.20;;;4.47;;
9712;SDS011;4895;50.926;6.870;2022-12-24T01:14:12;23.47;;;5.03;;
9712;SDS011;4895;50.926;6.870;2022-12-24T01:16:37;31.20;;;4.40;;
9712;SDS011;4895;50.926;6.870;2022-12-24T01:19:03;29.13;;;5.20;;
9712;SDS011;4895;50.926;6.870;2022-12-24T01:21:28;32.40;;;4.63;;
9712;SDS011;4895;50.926;6.870;2022-12-24T01:23:54;29.73;;;4.80;;
9712;SDS011;4895;50.926;6.870;2022-12-24T01:26:19;28.93;;;4.50;;
9712;SDS011;4895;50.926;6.870;2022-12-24T01:28:44;32.83;;;4.03;;
9712;SDS011;4895;50.926;6.870;2022-12-24T01:31:10;32.30;;;4.90;;
9712;SDS011;4895;50.926;6.870;2022-12-24T01:33:39;21.53;;;3.93;;
9712;SDS011;4895;50.926;6.870;2022-12-24T01:36:06;22.10;;;3.83;;
9712;SDS011;4895;50.926;6.870;2022-12-24T01:38:32;32.97;;;4.93;;
9712;SDS011;4895;50.926;6.870;2022-12-24T01:40:58;21.80;;;3.83;;
9712;SDS011;4895;50.926;6.870;2022-12-24T01:43:41;21.40;;;3.60;;
9712;SDS011;4895;50.926;6.870;2022-12-24T01:46:10;23.17;;;3.80;;
9712;SDS011;4895;50.926;6.870;2022-12-24T01:48:44;25.97;;;4.00;;
9712;SDS011;4895;50.926;6.870;2022-12-24T01:53:51;34.60;;;5.80;;
9712;SDS011;4895;50.926;6.870;2022-12-24T01:56:22;25.00;;;4.97;;
9712;SDS011;4895;50.926;6.870;2022-12-24T01:58:50;28.30;;;4.10;;
9712;SDS011;4895;50.926;6.870;2022-12-24T02:01:19;23.50;;;4.57;;
9712;SDS011;4895;50.926;6.870;2022-12-24T02:03:44;26.67;;;5.03;;
9712;SDS011;4895;50.926;6.870;2022-12-24T02:06:09;22.50;;;3.90;;
9712;SDS011;4895;50.926;6.870;2022-12-24T02:08:36;24.97;;;4.60;;
9712;SDS011;4895;50.926;6.870;2022-12-24T02:11:17;26.60;;;4.90;;
9712;SDS011;4895;50.926;6.870;2022-12-24T02:13:48;25.73;;;4.50;;
9712;SDS011;4895;50.926;6.870;2022-12-24T02:18:59;28.90;;;4.73;;
9712;SDS011;4895;50.926;6.870;2022-12-24T02:32:43;17.13;;;3.90;;
9712;SDS011;4895;50.926;6.870;2022-12-24T02:35:14;24.07;;;4.03;;
9712;SDS011;4895;50.926;6.870;2022-12-24T02:37:48;25.23;;;3.70;;
9712;SDS011;4895;50.926;6.870;2022-12-24T02:40:20;27.03;;;4.60;;
9712;SDS011;4895;50.926;6.870;2022-12-24T02:42:49;23.90;;;5.10;;
9712;SDS011;4895;50.926;6.870;2022-12-24T02:45:17;31.30;;;5.13;;
9712;SDS011;4895;50.926;6.870;2022-12-24T02:47:46;35.37;;;5.10;;
9712;SDS011;4895;50.926;6.870;2022-12-24T02:50:13;25.27;;;4.30;;
9712;SDS011;4895;50.926;6.870;2022-12-24T02:52:40;29.13;;;4.90;;
9712;SDS011;4895;50.926;6.870;2022-12-24T02:55:29;25.17;;;4.50;;
9712;SDS011;4895;50.926;6.870;2022-12-24T03:06:42;18.23;;;3.57;;
9712;SDS011;4895;50.926;6.870;2022-12-24T03:11:54;27.47;;;4.27;;
9712;SDS011;4895;50.926;6.870;2022-12-24T03:14:32;17.93;;;3.50;;
9712;SDS011;4895;50.926;6.870;2022-12-24T03:16:58;24.13;;;4.50;;
9712;SDS011;4895;50.926;6.870;2022-12-24T03:19:24;17.90;;;4.33;;
9712;SDS011;4895;50.926;6.870;2022-12-24T03:21:50;23.20;;;3.87;;
9712;SDS011;4895;50.926;6.870;2022-12-24T03:24:16;18.20;;;4.33;;
9712;SDS011;4895;50.926;6.870;2022-12-24T03:26:41;12.10;;;2.50;;
9712;SDS011;4895;50.926;6.870;2022-12-24T03:29:09;12.43;;;2.80;;
9712;SDS011;4895;50.926;6.870;2022-12-24T03:31:47;16.63;;;2.83;;
9712;SDS011;4895;50.926;6.870;2022-12-24T03:34:14;21.43;;;3.50;;
9712;SDS011;4895;50.926;6.870;2022-12-24T03:36:41;16.60;;;3.17;;
9712;SDS011;4895;50.926;6.870;2022-12-24T03:39:06;12.67;;;2.97;;
9712;SDS011;4895;50.926;6.870;2022-12-24T03:41:33;16.60;;;2.63;;
9712;SDS011;4895;50.926;6.870;2022-12-24T03:43:58;14.87;;;2.70;;
9712;SDS011;4895;50.926;6.870;2022-12-24T03:46:23;14.40;;;2.60;;
9712;SDS011;4895;50.926;6.870;2022-12-24T03:48:49;14.03;;;3.07;;
9712;SDS011;4895;50.926;6.870;2022-12-24T03:51:18;13.23;;;2.23;;
9712;SDS011;4895;50.926;6.870;2022-12-24T03:53:44;11.13;;;2.60;;
9712;SDS011;4895;50.926;6.870;2022-12-24T03:56:10;14.37;;;2.37;;
9712;SDS011;4895;50.926;6.870;2022-12-24T03:58:35;10.53;;;1.77;;
9712;SDS011;4895;50.926;6.870;2022-12-24T04:01:01;8.43;;;1.70;;
9712;SDS011;4895;50.926;6.870;2022-12-24T04:03:26;9.00;;;2.03;;
9712;SDS011;4895;50.926;6.870;2022-12-24T04:08:33;15.27;;;2.50;;
9712;SDS011;4895;50.926;6.870;2022-12-24T04:10:58;12.17;;;2.40;;
9712;SDS011;4895;50.926;6.870;2022-12-24T04:13:24;8.27;;;2.27;;
9712;SDS011;4895;50.926;6.870;2022-12-24T04:15:56;8.80;;;1.73;;
9712;SDS011;4895;50.926;6.870;2022-12-24T04:18:22;9.23;;;2.00;;
9712;SDS011;4895;50.926;6.870;2022-12-24T04:20:48;7.50;;;2.20;;
9712;SDS011;4895;50.926;6.870;2022-12-24T04:23:13;9.27;;;2.33;;
9712;SDS011;4895;50.926;6.870;2022-12-24T04:25:38;15.70;;;2.07;;
9712;SDS011;4895;50.926;6.870;2022-12-24T04:28:04;8.13;;;1.83;;
9712;SDS011;4895;50.926;6.870;2022-12-24T04:30:29;12.57;;;1.60;;
9712;SDS011;4895;50.926;6.870;2022-12-24T04:32:54;8.90;;;2.13;;
9712;SDS011;4895;50.926;6.870;2022-12-24T04:35:19;7.57;;;1.70;;
9712;SDS011;4895;50.926;6.870;2022-12-24T04:37:45;9.10;;;1.87;;
9712;SDS011;4895;50.926;6.870;2022-12-24T04:40:10;18.20;;;2.80;;
9712;SDS011;4895;50.926;6.870;2022-12-24T04:42:35;10.13;;;2.00;;
9712;SDS011;4895;50.926;6.870;2022-12-24T04:45:01;10.13;;;1.83;;
9712;SDS011;4895;50.926;6.870;2022-12-24T04:47:26;11.27;;;2.00;;
9712;SDS011;4895;50.926;6.870;2022-12-24T04:49:51;11.23;;;2.40;;
9712;SDS011;4895;50.926;6.870;2022-12-24T04:52:17;7.33;;;2.07;;
9712;SDS011;4895;50.926;6.870;2022-12-24T04:54:42;11.53;;;2.13;;
9712;SDS011;4895;50.926;6.870;2022-12-24T04:57:07;8.23;;;2.00;;
9712;SDS011;4895;50.926;6.870;2022-12-24T04:59:33;14.60;;;2.00;;
9712;SDS011;4895;50.926;6.870;2022-12-24T05:01:58;16.87;;;2.40;;
9712;SDS011;4895;50.926;6.870;2022-12-24T05:04:23;13.17;;;2.17;;
9712;SDS011;4895;50.926;6.870;2022-12-24T05:06:48;14.23;;;1.83;;
9712;SDS011;4895;50.926;6.870;2022-12-24T05:09:14;14.43;;;2.20;;
9712;SDS011;4895;50.926;6.870;2022-12-24T05:11:39;7.53;;;1.83;;
9712;SDS011;4895;50.926;6.870;2022-12-24T05:14:04;11.47;;;2.17;;
9712;SDS011;4895;50.926;6.870;2022-12-24T05:16:29;15.20;;;2.53;;
9712;SDS011;4895;50.926;6.870;2022-12-24T05:18:55;11.17;;;2.00;;
9712;SDS011;4895;50.926;6.870;2022-12-24T05:21:21;8.57;;;1.90;;
9712;SDS011;4895;50.926;6.870;2022-12-24T05:23:47;9.03;;;2.27;;
9712;SDS011;4895;50.926;6.870;2022-12-24T05:26:34;10.90;;;2.30;;
9712;SDS011;4895;50.926;6.870;2022-12-24T05:29:04;10.47;;;2.00;;
9712;SDS011;4895;50.926;6.870;2022-12-24T05:31:30;10.07;;;2.37;;
9712;SDS011;4895;50.926;6.870;2022-12-24T05:33:57;14.40;;;2.40;;
9712;SDS011;4895;50.926;6.870;2022-12-24T05:36:23;14.90;;;2.43;;
9712;SDS011;4895;50.926;6.870;2022-12-24T05:38:49;18.67;;;3.03;;
9712;SDS011;4895;50.926;6.870;2022-12-24T05:41:14;14.23;;;3.63;;
9712;SDS011;4895;50.926;6.870;2022-12-24T05:43:40;14.57;;;2.90;;
9712;SDS011;4895;50.926;6.870;2022-12-24T05:46:06;23.10;;;3.27;;
9712;SDS011;4895;50.926;6.870;2022-12-24T05:48:33;8.63;;;3.00;;
9712;SDS011;4895;50.926;6.870;2022-12-24T05:50:58;17.93;;;3.37;;
9712;SDS011;4895;50.926;6.870;2022-12-24T05:53:24;19.40;;;3.57;;
9712;SDS011;4895;50.926;6.870;2022-12-24T05:55:49;13.23;;;3.70;;
9712;SDS011;4895;50.926;6.870;2022-12-24T05:58:14;13.63;;;2.83;;
9712;SDS011;4895;50.926;6.870;2022-12-24T06:00:40;23.73;;;4.23;;
9712;SDS011;4895;50.926;6.870;2022-12-24T06:03:05;23.47;;;3.83;;
9712;SDS011;4895;50.926;6.870;2022-12-24T06:05:31;11.83;;;3.07;;
9712;SDS011;4895;50.926;6.870;2022-12-24T06:07:56;16.20;;;4.10;;
9712;SDS011;4895;50.926;6.870;2022-12-24T06:10:22;22.77;;;4.17;;
9712;SDS011;4895;50.926;6.870;2022-12-24T06:12:47;19.83;;;4.03;;
9712;SDS011;4895;50.926;6.870;2022-12-24T06:15:12;21.83;;;3.53;;
9712;SDS011;4895;50.926;6.870;2022-12-24T06:17:38;13.70;;;3.73;;
9712;SDS011;4895;50.926;6.870;2022-12-24T06:20:04;21.67;;;3.60;;
9712;SDS011;4895;50.926;6.870;2022-12-24T06:22:29;14.27;;;3.10;;
9712;SDS011;4895;50.926;6.870;2022-12-24T06:24:55;16.40;;;3.47;;
9712;SDS011;4895;50.926;6.870;2022-12-24T06:27:20;19.83;;;3.87;;
9712;SDS011;4895;50.926;6.870;2022-12-24T06:29:45;25.97;;;4.40;;
9712;SDS011;4895;50.926;6.870;2022-12-24T06:32:11;25.97;;;4.40;;
9712;SDS011;4895;50.926;6.870;2022-12-24T06:34:36;16.87;;;4.27;;
9712;SDS011;4895;50.926;6.870;2022-12-24T06:37:01;13.10;;;3.50;;
9712;SDS011;4895;50.926;6.870;2022-12-24T06:39:27;18.13;;;4.83;;
9712;SDS011;4895;50.926;6.870;2022-12-24T06:41:52;22.77;;;5.10;;
9712;SDS011;4895;50.926;6.870;2022-12-24T06:44:17;23.97;;;5.53;;
9712;SDS011;4895;50.926;6.870;2022-12-24T06:46:42;24.80;;;3.80;;
9712;SDS011;4895;50.926;6.870;2022-12-24T06:49:08;26.90;;;3.90;;
9712;SDS011;4895;50.926;6.870;2022-12-24T06:51:33;24.20;;;4.47;;
9712;SDS011;4895;50.926;6.870;2022-12-24T06:53:58;26.53;;;5.27;;
9712;SDS011;4895;50.926;6.870;2022-12-24T06:56:24;35.87;;;5.07;;
9712;SDS011;4895;50.926;6.870;2022-12-24T06:58:49;17.03;;;4.03;;
9712;SDS011;4895;50.926;6.870;2022-12-24T07:01:15;38.37;;;6.10;;
9712;SDS011;4895;50.926;6.870;2022-12-24T07:03:41;28.07;;;5.87;;
9712;SDS011;4895;50.926;6.870;2022-12-24T07:08:52;23.77;;;5.03;;
9712;SDS011;4895;50.926;6.870;2022-12-24T07:11:18;26.00;;;5.13;;
9712;SDS011;4895;50.926;6.870;2022-12-24T07:13:43;26.33;;;5.00;;
9712;SDS011;4895;50.926;6.870;2022-12-24T07:16:09;26.07;;;4.40;;
9712;SDS011;4895;50.926;6.870;2022-12-24T07:18:35;32.20;;;4.83;;
9712;SDS011;4895;50.926;6.870;2022-12-24T07:21:01;30.20;;;5.00;;
9712;SDS011;4895;50.926;6.870;2022-12-24T07:23:28;20.67;;;5.77;;
9712;SDS011;4895;50.926;6.870;2022-12-24T07:25:53;27.03;;;5.47;;
9712;SDS011;4895;50.926;6.870;2022-12-24T07:28:18;37.60;;;5.50;;
9712;SDS011;4895;50.926;6.870;2022-12-24T07:30:43;36.27;;;5.60;;
9712;SDS011;4895;50.926;6.870;2022-12-24T07:33:09;30.70;;;5.00;;
9712;SDS011;4895;50.926;6.870;2022-12-24T07:35:34;27.20;;;4.77;;
9712;SDS011;4895;50.926;6.870;2022-12-24T07:38:00;39.07;;;5.37;;
9712;SDS011;4895;50.926;6.870;2022-12-24T07:40:26;33.07;;;4.80;;
9712;SDS011;4895;50.926;6.870;2022-12-24T07:42:51;27.87;;;5.63;;
9712;SDS011;4895;50.926;6.870;2022-12-24T07:45:16;28.27;;;5.63;;
9712;SDS011;4895;50.926;6.870;2022-12-24T07:47:42;28.13;;;5.13;;
9712;SDS011;4895;50.926;6.870;2022-12-24T07:50:07;36.80;;;4.73;;
9712;SDS011;4895;50.926;6.870;2022-12-24T07:52:33;27.73;;;4.93;;
9712;SDS011;4895;50.926;6.870;2022-12-24T07:54:58;26.13;;;4.57;;
9712;SDS011;4895;50.926;6.870;2022-12-24T07:57:23;36.00;;;5.33;;
9712;SDS011;4895;50.926;6.870;2022-12-24T07:59:49;23.80;;;4.23;;
9712;SDS011;4895;50.926;6.870;2022-12-24T08:02:14;29.30;;;4.93;;
9712;SDS011;4895;50.926;6.870;2022-12-24T08:04:39;28.70;;;4.83;;
9712;SDS011;4895;50.926;6.870;2022-12-24T08:07:05;37.83;;;5.20;;
9712;SDS011;4895;50.926;6.870;2022-12-24T08:09:31;30.87;;;5.00;;
9712;SDS011;4895;50.926;6.870;2022-12-24T08:11:57;24.90;;;4.40;;
9712;SDS011;4895;50.926;6.870;2022-12-24T08:14:22;22.73;;;5.30;;
9712;SDS011;4895;50.926;6.870;2022-12-24T08:16:48;33.73;;;6.23;;
9712;SDS011;4895;50.926;6.870;2022-12-24T08:19:13;28.90;;;4.80;;
9712;SDS011;4895;50.926;6.870;2022-12-24T08:21:38;33.50;;;5.17;;
9712;SDS011;4895;50.926;6.870;2022-12-24T08:24:03;23.57;;;4.50;;
9712;SDS011;4895;50.926;6.870;2022-12-24T08:26:29;37.37;;;4.43;;
9712;SDS011;4895;50.926;6.870;2022-12-24T08:28:54;24.13;;;5.27;;
9712;SDS011;4895;50.926;6.870;2022-12-24T08:31:19;32.87;;;6.40;;
9712;SDS011;4895;50.926;6.870;2022-12-24T08:33:45;29.03;;;6.30;;
9712;SDS011;4895;50.926;6.870;2022-12-24T08:36:10;28.80;;;4.50;;
9712;SDS011;4895;50.926;6.870;2022-12-24T08:38:35;31.70;;;5.97;;
9712;SDS011;4895;50.926;6.870;2022-12-24T08:41:00;35.60;;;5.90;;
9712;SDS011;4895;50.926;6.870;2022-12-24T08:43:26;30.77;;;5.93;;
9712;SDS011;4895;50.926;6.870;2022-12-24T08:45:51;32.70;;;5.27;;
9712;SDS011;4895;50.926;6.870;2022-12-24T08:48:17;38.40;;;5.60;;
9712;SDS011;4895;50.926;6.870;2022-12-24T08:50:42;34.40;;;5.80;;
9712;SDS011;4895;50.926;6.870;2022-12-24T08:53:08;22.40;;;4.70;;
9712;SDS011;4895;50.926;6.870;2022-12-24T08:55:33;35.17;;;5.00;;
9712;SDS011;4895;50.926;6.870;2022-12-24T08:57:59;42.10;;;5.70;;
9712;SDS011;4895;50.926;6.870;2022-12-24T09:00:24;16.13;;;5.30;;
9712;SDS011;4895;50.926;6.870;2022-12-24T09:02:50;26.53;;;5.83;;
9712;SDS011;4895;50.926;6.870;2022-12-24T09:05:15;27.50;;;5.53;;
9712;SDS011;4895;50.926;6.870;2022-12-24T09:07:41;36.80;;;5.67;;
9712;SDS011;4895;50.926;6.870;2022-12-24T09:10:06;35.37;;;5.60;;
9712;SDS011;4895;50.926;6.870;2022-12-24T09:12:32;35.47;;;5.87;;
9712;SDS011;4895;50.926;6.870;2022-12-24T09:14:57;35.20;;;7.03;;
9712;SDS011;4895;50.926;6.870;2022-12-24T09:17:22;44.90;;;7.23;;
9712;SDS011;4895;50.926;6.870;2022-12-24T09:19:48;45.70;;;7.00;;
9712;SDS011;4895;50.926;6.870;2022-12-24T09:22:13;26.10;;;5.77;;
9712;SDS011;4895;50.926;6.870;2022-12-24T09:24:39;29.70;;;7.23;;
9712;SDS011;4895;50.926;6.870;2022-12-24T09:27:04;40.90;;;6.07;;
9712;SDS011;4895;50.926;6.870;2022-12-24T09:29:30;35.53;;;5.40;;
9712;SDS011;4895;50.926;6.870;2022-12-24T09:31:55;40.57;;;5.70;;
9712;SDS011;4895;50.926;6.870;2022-12-24T09:34:21;29.10;;;5.00;;
9712;SDS011;4895;50.926;6.870;2022-12-24T09:36:47;34.47;;;5.77;;
9712;SDS011;4895;50.926;6.870;2022-12-24T09:39:13;32.57;;;6.53;;
9712;SDS011;4895;50.926;6.870;2022-12-24T09:47:54;28.90;;;5.40;;
9712;SDS011;4895;50.926;6.870;2022-12-24T09:50:06;28.23;;;5.77;;
9712;SDS011;4895;50.926;6.870;2022-12-24T09:52:46;29.87;;;5.60;;
9712;SDS011;4895;50.926;6.870;2022-12-24T09:55:19;37.67;;;5.23;;
9712;SDS011;4895;50.926;6.870;2022-12-24T09:57:52;33.90;;;6.17;;
9712;SDS011;4895;50.926;6.870;2022-12-24T10:00:23;38.10;;;5.77;;
9712;SDS011;4895;50.926;6.870;2022-12-24T10:02:51;33.27;;;6.97;;
9712;SDS011;4895;50.926;6.870;2022-12-24T10:05:17;30.40;;;5.37;;
9712;SDS011;4895;50.926;6.870;2022-12-24T10:07:55;29.53;;;4.70;;
9712;SDS011;4895;50.926;6.870;2022-12-24T10:10:30;36.03;;;5.90;;
9712;SDS011;4895;50.926;6.870;2022-12-24T10:15:59;36.20;;;5.63;;
9712;SDS011;4895;50.926;6.870;2022-12-24T10:21:29;34.60;;;5.00;;
9712;SDS011;4895;50.926;6.870;2022-12-24T10:26:45;56.30;;;7.00;;
9712;SDS011;4895;50.926;6.870;2022-12-24T10:29:16;38.47;;;5.63;;
9712;SDS011;4895;50.926;6.870;2022-12-24T10:34:45;33.00;;;5.33;;
9712;SDS011;4895;50.926;6.870;2022-12-24T10:37:16;37.87;;;5.97;;
9712;SDS011;4895;50.926;6.870;2022-12-24T10:39:46;28.70;;;5.47;;
9712;SDS011;4895;50.926;6.870;2022-12-24T10:42:12;32.50;;;5.13;;
9712;SDS011;4895;50.926;6.870;2022-12-24T10:44:37;42.03;;;5.30;;
9712;SDS011;4895;50.926;6.870;2022-12-24T10:47:03;30.63;;;4.53;;
9712;SDS011;4895;50.926;6.870;2022-12-24T10:49:53;35.13;;;5.97;;
9712;SDS011;4895;50.926;6.870;2022-12-24T10:52:19;24.80;;;4.73;;
9712;SDS011;4895;50.926;6.870;2022-12-24T10:57:30;28.23;;;4.77;;
9712;SDS011;4895;50.926;6.870;2022-12-24T10:59:55;37.63;;;5.50;;
9712;SDS011;4895;50.926;6.870;2022-12-24T11:02:25;35.13;;;6.03;;
9712;SDS011;4895;50.926;6.870;2022-12-24T11:05:03;32.50;;;5.53;;
9712;SDS011;4895;50.926;6.870;2022-12-24T11:07:31;34.37;;;5.90;;
9712;SDS011;4895;50.926;6.870;2022-12-24T11:12:28;33.90;;;5.13;;
9712;SDS011;4895;50.926;6.870;2022-12-24T11:14:59;29.60;;;5.07;;
9712;SDS011;4895;50.926;6.870;2022-12-24T11:17:25;33.03;;;6.20;;
9712;SDS011;4895;50.926;6.870;2022-12-24T11:19:50;29.90;;;5.63;;
9712;SDS011;4895;50.926;6.870;2022-12-24T11:22:17;24.87;;;4.70;;
9712;SDS011;4895;50.926;6.870;2022-12-24T11:27:41;32.67;;;5.53;;
9712;SDS011;4895;50.926;6.870;2022-12-24T11:30:43;26.67;;;5.67;;
9712;SDS011;4895;50.926;6.870;2022-12-24T11:35:30;30.77;;;5.17;;
9712;SDS011;4895;50.926;6.870;2022-12-24T11:40:39;34.10;;;5.90;;
9712;SDS011;4895;50.926;6.870;2022-12-24T11:43:16;28.93;;;5.40;;
9712;SDS011;4895;50.926;6.870;2022-12-24T11:45:50;27.93;;;4.97;;
9712;SDS011;4895;50.926;6.870;2022-12-24T11:48:30;33.43;;;4.80;;
9712;SDS011;4895;50.926;6.870;2022-12-24T11:51:00;23.70;;;4.50;;
9712;SDS011;4895;50.926;6.870;2022-12-24T11:56:13;21.07;;;5.20;;
9712;SDS011;4895;50.926;6.870;2022-12-24T11:58:54;26.27;;;5.00;;
9712;SDS011;4895;50.926;6.870;2022-12-24T12:04:12;30.30;;;5.67;;
9712;SDS011;4895;50.926;6.870;2022-12-24T12:09:13;38.90;;;7.33;;
9712;SDS011;4895;50.926;6.870;2022-12-24T12:11:45;32.03;;;5.87;;
9712;SDS011;4895;50.926;6.870;2022-12-24T12:14:29;31.63;;;5.80;;
9712;SDS011;4895;50.926;6.870;2022-12-24T12:17:02;25.33;;;4.93;;
9712;SDS011;4895;50.926;6.870;2022-12-24T12:19:37;36.47;;;5.40;;
9712;SDS011;4895;50.926;6.870;2022-12-24T12:22:06;21.13;;;4.80;;
9712;SDS011;4895;50.926;6.870;2022-12-24T12:24:41;35.43;;;5.73;;
9712;SDS011;4895;50.926;6.870;2022-12-24T12:30:02;30.30;;;6.50;;
9712;SDS011;4895;50.926;6.870;2022-12-24T12:32:40;41.57;;;5.63;;
9712;SDS011;4895;50.926;6.870;2022-12-24T12:35:14;26.07;;;4.87;;
9712;SDS011;4895;50.926;6.870;2022-12-24T12:37:45;32.73;;;6.03;;
9712;SDS011;4895;50.926;6.870;2022-12-24T12:40:15;30.50;;;5.80;;
9712;SDS011;4895;50.926;6.870;2022-12-24T12:42:45;28.30;;;6.10;;
9712;SDS011;4895;50.926;6.870;2022-12-24T12:45:51;28.53;;;5.80;;
9712;SDS011;4895;50.926;6.870;2022-12-24T12:48:25;32.07;;;5.30;;
9712;SDS011;4895;50.926;6.870;2022-12-24T12:51:13;34.37;;;4.83;;
9712;SDS011;4895;50.926;6.870;2022-12-24T12:56:32;33.83;;;5.57;;
9712;SDS011;4895;50.926;6.870;2022-12-24T12:59:10;29.97;;;5.43;;
9712;SDS011;4895;50.926;6.870;2022-12-24T13:02:00;31.03;;;5.53;;
9712;SDS011;4895;50.926;6.870;2022-12-24T13:10:12;30.17;;;7.10;;
9712;SDS011;4895;50.926;6.870;2022-12-24T13:18:10;29.47;;;5.20;;
9712;SDS011;4895;50.926;6.870;2022-12-24T13:20:41;32.93;;;5.40;;
9712;SDS011;4895;50.926;6.870;2022-12-24T13:25:38;21.83;;;4.20;;
9712;SDS011;4895;50.926;6.870;2022-12-24T13:30:49;25.70;;;4.50;;
9712;SDS011;4895;50.926;6.870;2022-12-24T13:49:18;26.23;;;5.10;;
9712;SDS011;4895;50.926;6.870;2022-12-24T13:51:45;19.67;;;4.20;;
9712;SDS011;4895;50.926;6.870;2022-12-24T13:54:11;24.70;;;4.57;;
9712;SDS011;4895;50.926;6.870;2022-12-24T13:56:38;25.97;;;4.60;;
9712;SDS011;4895;50.926;6.870;2022-12-24T13:59:24;29.17;;;5.30;;
9712;SDS011;4895;50.926;6.870;2022-12-24T14:01:53;21.00;;;4.70;;
9712;SDS011;4895;50.926;6.870;2022-12-24T14:04:30;25.90;;;4.10;;
9712;SDS011;4895;50.926;6.870;2022-12-24T14:06:58;21.97;;;4.30;;
9712;SDS011;4895;50.926;6.870;2022-12-24T14:09:27;30.37;;;5.10;;
9712;SDS011;4895;50.926;6.870;2022-12-24T14:14:29;31.17;;;4.40;;
9712;SDS011;4895;50.926;6.870;2022-12-24T14:16:57;25.27;;;4.07;;
9712;SDS011;4895;50.926;6.870;2022-12-24T14:19:24;22.67;;;3.93;;
9712;SDS011;4895;50.926;6.870;2022-12-24T14:24:27;21.73;;;3.90;;
9712;SDS011;4895;50.926;6.870;2022-12-24T14:26:57;19.20;;;4.50;;
9712;SDS011;4895;50.926;6.870;2022-12-24T14:29:31;24.97;;;4.30;;
9712;SDS011;4895;50.926;6.870;2022-12-24T14:31:58;36.17;;;4.73;;
9712;SDS011;4895;50.926;6.870;2022-12-24T14:34:28;25.67;;;4.70;;
9712;SDS011;4895;50.926;6.870;2022-12-24T14:36:54;18.60;;;4.10;;
9712;SDS011;4895;50.926;6.870;2022-12-24T14:39:25;30.60;;;4.63;;
9712;SDS011;4895;50.926;6.870;2022-12-24T14:44:43;23.40;;;4.10;;
9712;SDS011;4895;50.926;6.870;2022-12-24T14:47:21;21.70;;;3.70;;
9712;SDS011;4895;50.926;6.870;2022-12-24T14:55:51;20.60;;;4.33;;
9712;SDS011;4895;50.926;6.870;2022-12-24T14:58:22;34.07;;;5.20;;
9712;SDS011;4895;50.926;6.870;2022-12-24T15:00:56;23.53;;;4.67;;
9712;SDS011;4895;50.926;6.870;2022-12-24T15:03:26;22.23;;;4.40;;
9712;SDS011;4895;50.926;6.870;2022-12-24T15:05:54;16.37;;;3.90;;
9712;SDS011;4895;50.926;6.870;2022-12-24T15:08:27;37.13;;;4.57;;
9712;SDS011;4895;50.926;6.870;2022-12-24T15:10:54;30.57;;;5.80;;
9712;SDS011;4895;50.926;6.870;2022-12-24T15:16:00;38.83;;;5.37;;
9712;SDS011;4895;50.926;6.870;2022-12-24T15:18:28;24.80;;;5.70;;
9712;SDS011;4895;50.926;6.870;2022-12-24T15:20:55;28.40;;;4.90;;
9712;SDS011;4895;50.926;6.870;2022-12-24T15:23:27;28.17;;;6.00;;
9712;SDS011;4895;50.926;6.870;2022-12-24T15:28:50;31.97;;;5.43;;
9712;SDS011;4895;50.926;6.870;2022-12-24T15:31:17;30.07;;;5.23;;
9712;SDS011;4895;50.926;6.870;2022-12-24T15:33:47;26.23;;;6.13;;
9712;SDS011;4895;50.926;6.870;2022-12-24T15:36:15;34.90;;;5.63;;
9712;SDS011;4895;50.926;6.870;2022-12-24T15:38:43;38.50;;;7.03;;
9712;SDS011;4895;50.926;6.870;2022-12-24T15:41:18;41.87;;;7.27;;
9712;SDS011;4895;50.926;6.870;2022-12-24T15:43:46;37.43;;;7.83;;
9712;SDS011;4895;50.926;6.870;2022-12-24T15:46:23;38.40;;;6.10;;
9712;SDS011;4895;50.926;6.870;2022-12-24T15:48:49;25.07;;;6.20;;
9712;SDS011;4895;50.926;6.870;2022-12-24T15:51:31;22.70;;;5.40;;
9712;SDS011;4895;50.926;6.870;2022-12-24T15:54:05;32.47;;;5.80;;
9712;SDS011;4895;50.926;6.870;2022-12-24T15:56:39;33.27;;;6.00;;
9712;SDS011;4895;50.926;6.870;2022-12-24T16:01:39;37.57;;;7.33;;
9712;SDS011;4895;50.926;6.870;2022-12-24T16:04:11;26.83;;;7.10;;
9712;SDS011;4895;50.926;6.870;2022-12-24T16:06:58;39.00;;;7.70;;
9712;SDS011;4895;50.926;6.870;2022-12-24T16:11:58;23.30;;;5.50;;
9712;SDS011;4895;50.926;6.870;2022-12-24T16:14:24;35.20;;;6.27;;
9712;SDS011;4895;50.926;6.870;2022-12-24T16:16:50;34.40;;;6.20;;
9712;SDS011;4895;50.926;6.870;2022-12-24T16:19:21;34.23;;;6.00;;
9712;SDS011;4895;50.926;6.870;2022-12-24T16:21:58;33.33;;;6.10;;
9712;SDS011;4895;50.926;6.870;2022-12-24T16:24:45;29.73;;;7.60;;
9712;SDS011;4895;50.926;6.870;2022-12-24T16:27:11;21.43;;;6.40;;
9712;SDS011;4895;50.926;6.870;2022-12-24T16:29:37;33.20;;;5.37;;
9712;SDS011;4895;50.926;6.870;2022-12-24T16:32:02;19.67;;;6.50;;
9712;SDS011;4895;50.926;6.870;2022-12-24T16:34:28;30.53;;;5.80;;
9712;SDS011;4895;50.926;6.870;2022-12-24T16:36:55;24.70;;;5.27;;
9712;SDS011;4895;50.926;6.870;2022-12-24T16:41:53;23.10;;;5.90;;
9712;SDS011;4895;50.926;6.870;2022-12-24T16:44:38;33.43;;;8.23;;
9712;SDS011;4895;50.926;6.870;2022-12-24T16:47:18;38.00;;;7.07;;
9712;SDS011;4895;50.926;6.870;2022-12-24T16:49:45;25.60;;;6.27;;
9712;SDS011;4895;50.926;6.870;2022-12-24T16:52:15;37.37;;;7.07;;
9712;SDS011;4895;50.926;6.870;2022-12-24T16:54:46;22.80;;;6.20;;
9712;SDS011;4895;50.926;6.870;2022-12-24T16:57:11;27.40;;;6.83;;
9712;SDS011;4895;50.926;6.870;2022-12-24T16:59:37;25.13;;;6.53;;
9712;SDS011;4895;50.926;6.870;2022-12-24T17:02:02;28.00;;;6.80;;
9712;SDS011;4895;50.926;6.870;2022-12-24T17:04:30;26.77;;;6.40;;
9712;SDS011;4895;50.926;6.870;2022-12-24T17:06:56;26.63;;;6.60;;
9712;SDS011;4895;50.926;6.870;2022-12-24T17:09:21;34.70;;;7.23;;
9712;SDS011;4895;50.926;6.870;2022-12-24T17:11:46;26.57;;;7.60;;
9712;SDS011;4895;50.926;6.870;2022-12-24T17:14:12;39.83;;;6.67;;
9712;SDS011;4895;50.926;6.870;2022-12-24T17:16:37;24.77;;;6.63;;
9712;SDS011;4895;50.926;6.870;2022-12-24T17:19:03;39.47;;;8.53;;
9712;SDS011;4895;50.926;6.870;2022-12-24T17:21:28;37.90;;;7.70;;
9712;SDS011;4895;50.926;6.870;2022-12-24T17:23:54;25.70;;;6.73;;
9712;SDS011;4895;50.926;6.870;2022-12-24T17:26:19;35.63;;;7.70;;